Estación de C. Llollinco
Ultimos registro cada 15 minutos 81
| N° | Estación | Fecha / Hora | Temperatura | Humedad | Lluvia | Velocidad | Dirección | Radiación | Presion |
| 81 | C. Llollinco | 09-05-2026 20:00 | 9,2 | 69,2 | 0 | 1,2 | 240 | 0 | 0 |
| 80 | C. Llollinco | 09-05-2026 19:45 | 9,4 | 68 | 0 | 1,8 | 255 | 0 | 0 |
| 79 | C. Llollinco | 09-05-2026 19:30 | 9,2 | 68,7 | 0 | 0,5 | 246 | 0 | 0 |
| 78 | C. Llollinco | 09-05-2026 19:15 | 9,4 | 69,4 | 0 | 1,4 | 245 | 0 | 0 |
| 77 | C. Llollinco | 09-05-2026 19:00 | 7,7 | 72,8 | 0 | 0,3 | 256 | 0 | 0 |
| 76 | C. Llollinco | 09-05-2026 18:45 | 7,9 | 87,8 | 0 | 0 | 0 | 0 | 0 |
| 75 | C. Llollinco | 09-05-2026 18:30 | 8,8 | 84 | 0 | 0 | 0 | 0 | 0 |
| 74 | C. Llollinco | 09-05-2026 18:15 | 9,5 | 80,6 | 0 | 0 | 285 | 1 | 0 |
| 73 | C. Llollinco | 09-05-2026 18:00 | 10,8 | 78,3 | 0 | 0 | 0 | 4 | 0 |
| 72 | C. Llollinco | 09-05-2026 17:45 | 12,2 | 67,2 | 0 | 0 | 220 | 8 | 0 |
| 71 | C. Llollinco | 09-05-2026 17:30 | 13,1 | 58,8 | 0 | 0,1 | 221 | 13 | 0 |
| 70 | C. Llollinco | 09-05-2026 17:15 | 14,2 | 56 | 0 | 0,5 | 204 | 44 | 0 |
| 69 | C. Llollinco | 09-05-2026 17:00 | 15,1 | 49,8 | 0 | 0,2 | 166 | 121 | 0 |
| 68 | C. Llollinco | 09-05-2026 16:45 | 16 | 45,7 | 0 | 0 | 0 | 154 | 0 |
| 67 | C. Llollinco | 09-05-2026 16:30 | 16,6 | 44,7 | 0 | 0 | 179 | 188 | 0 |
| 66 | C. Llollinco | 09-05-2026 16:15 | 16,4 | 44,6 | 0 | 0,2 | 170 | 222 | 0 |
| 65 | C. Llollinco | 09-05-2026 16:00 | 16,3 | 44,3 | 0 | 0 | 0 | 254 | 0 |
| 64 | C. Llollinco | 09-05-2026 15:45 | 16,5 | 41,3 | 0 | 0,2 | 140 | 285 | 0 |
| 63 | C. Llollinco | 09-05-2026 15:30 | 16,6 | 43,2 | 0 | 0 | 81 | 315 | 0 |
| 62 | C. Llollinco | 09-05-2026 15:15 | 16,1 | 43,9 | 0 | 0,8 | 219 | 342 | 0 |
| 61 | C. Llollinco | 09-05-2026 15:00 | 15,8 | 48,9 | 0 | 1,8 | 259 | 367 | 0 |
| 60 | C. Llollinco | 09-05-2026 14:45 | 15,6 | 47,1 | 0 | 2,2 | 240 | 388 | 0 |
| 59 | C. Llollinco | 09-05-2026 14:30 | 16,1 | 48,1 | 0 | 1,4 | 230 | 409 | 0 |
| 58 | C. Llollinco | 09-05-2026 14:15 | 16 | 40,7 | 0 | 1,7 | 202 | 428 | 0 |
| 57 | C. Llollinco | 09-05-2026 14:00 | 15,7 | 40,8 | 0 | 1,6 | 209 | 441 | 0 |
| 56 | C. Llollinco | 09-05-2026 13:45 | 15,6 | 44,2 | 0 | 1,8 | 231 | 452 | 0 |
| 55 | C. Llollinco | 09-05-2026 13:30 | 15,1 | 47,7 | 0 | 1,6 | 230 | 461 | 0 |
| 54 | C. Llollinco | 09-05-2026 13:15 | 14,8 | 47,9 | 0 | 1,1 | 215 | 470 | 0 |
| 53 | C. Llollinco | 09-05-2026 13:00 | 14,4 | 48,8 | 0 | 0,1 | 137 | 475 | 0 |
| 52 | C. Llollinco | 09-05-2026 12:45 | 14,4 | 44 | 0 | 1,1 | 178 | 474 | 0 |
| 51 | C. Llollinco | 09-05-2026 12:30 | 14,1 | 50 | 0 | 0,6 | 185 | 470 | 0 |
| 50 | C. Llollinco | 09-05-2026 12:15 | 13,5 | 41,1 | 0 | 1,4 | 186 | 464 | 0 |
| 49 | C. Llollinco | 09-05-2026 12:00 | 13,2 | 44,8 | 0 | 1,4 | 208 | 454 | 0 |
| 48 | C. Llollinco | 09-05-2026 11:45 | 12,7 | 47 | 0 | 1,3 | 196 | 442 | 0 |
| 47 | C. Llollinco | 09-05-2026 11:30 | 12,3 | 51,1 | 0 | 1,1 | 204 | 427 | 0 |
| 46 | C. Llollinco | 09-05-2026 11:15 | 11,6 | 57,4 | 0 | 0,3 | 197 | 411 | 0 |
| 45 | C. Llollinco | 09-05-2026 11:00 | 11 | 64,5 | 0 | 0,1 | 139 | 391 | 0 |
| 44 | C. Llollinco | 09-05-2026 10:45 | 10,8 | 65,3 | 0 | 0,1 | 59 | 367 | 0 |
| 43 | C. Llollinco | 09-05-2026 10:30 | 9,5 | 65,6 | 0 | 0,1 | 347 | 342 | 0 |
| 42 | C. Llollinco | 09-05-2026 10:15 | 9 | 67,9 | 0 | 0,8 | 350 | 314 | 0 |
| 41 | C. Llollinco | 09-05-2026 10:00 | 8,3 | 72,3 | 0 | 0,8 | 5 | 286 | 0 |
| 40 | C. Llollinco | 09-05-2026 09:45 | 6,9 | 83,1 | 0 | 0,1 | 338 | 256 | 0 |
| 39 | C. Llollinco | 09-05-2026 09:30 | 5,5 | 97,5 | 0 | 0,4 | 333 | 226 | 0 |
| 38 | C. Llollinco | 09-05-2026 09:15 | 4,2 | 98,9 | 0 | 0,2 | 14 | 192 | 0 |
| 37 | C. Llollinco | 09-05-2026 09:00 | 3 | 98,5 | 0 | 0,1 | 15 | 161 | 0 |
| 36 | C. Llollinco | 09-05-2026 08:45 | 2,1 | 98,9 | 0,1 | 0,7 | 210 | 127 | 0 |
| 35 | C. Llollinco | 09-05-2026 08:30 | 1,6 | 97,8 | 0 | 0 | 0 | 84 | 0 |
| 34 | C. Llollinco | 09-05-2026 08:15 | 0,4 | 98,7 | 0 | 0 | 0 | 24 | 0 |
| 33 | C. Llollinco | 09-05-2026 08:00 | 0,3 | 97,9 | 0 | 0 | 0 | 7 | 0 |
| 32 | C. Llollinco | 09-05-2026 07:45 | 0,2 | 97,8 | 0 | 0 | 0 | 3 | 0 |
| 31 | C. Llollinco | 09-05-2026 07:30 | 0,3 | 97,8 | 0 | 0 | 0 | 1 | 0 |
| 30 | C. Llollinco | 09-05-2026 07:15 | 0,6 | 97,8 | 0 | 0 | 0 | 0 | 0 |
| 29 | C. Llollinco | 09-05-2026 07:00 | 0,7 | 98,1 | 0 | 0 | 0 | 0 | 0 |
| 28 | C. Llollinco | 09-05-2026 06:45 | 0,2 | 98,2 | 0 | 0,2 | 20 | 0 | 0 |
| 27 | C. Llollinco | 09-05-2026 06:30 | 0,5 | 97,9 | 0 | 0 | 0 | 0 | 0 |
| 26 | C. Llollinco | 09-05-2026 06:15 | 0,6 | 97,9 | 0 | 0 | 236 | 0 | 0 |
| 25 | C. Llollinco | 09-05-2026 06:00 | 0,6 | 98,1 | 0 | 0,4 | 210 | 0 | 0 |
| 24 | C. Llollinco | 09-05-2026 05:45 | 0,8 | 97,8 | 0 | 0 | 0 | 0 | 0 |
| 23 | C. Llollinco | 09-05-2026 05:30 | 1,1 | 97,7 | 0 | 0,2 | 194 | 0 | 0 |
| 22 | C. Llollinco | 09-05-2026 05:15 | 0,7 | 99,4 | 0 | 0,2 | 222 | 0 | 0 |
| 21 | C. Llollinco | 09-05-2026 05:00 | 1,1 | 97,5 | 0 | 0 | 196 | 0 | 0 |
| 20 | C. Llollinco | 09-05-2026 04:45 | 1,3 | 97,7 | 0 | 0,1 | 42 | 0 | 0 |
| 19 | C. Llollinco | 09-05-2026 04:30 | 0,7 | 98,4 | 0 | 0,4 | 14 | 0 | 0 |
| 18 | C. Llollinco | 09-05-2026 04:15 | 0,9 | 97,9 | 0 | 0,1 | 211 | 0 | 0 |
| 17 | C. Llollinco | 09-05-2026 04:00 | 1,2 | 97,4 | 0 | 0,2 | 213 | 0 | 0 |
| 16 | C. Llollinco | 09-05-2026 03:45 | 1,2 | 97,7 | 0 | 0 | 0 | 0 | 0 |
| 15 | C. Llollinco | 09-05-2026 03:30 | 1,5 | 97,4 | 0 | 0,3 | 181 | 0 | 0 |
| 14 | C. Llollinco | 09-05-2026 03:15 | 1,3 | 97,9 | 0 | 0,3 | 39 | 0 | 0 |
| 13 | C. Llollinco | 09-05-2026 03:00 | 1,5 | 97,1 | 0 | 0,1 | 13 | 0 | 0 |
| 12 | C. Llollinco | 09-05-2026 02:45 | 1,7 | 97,4 | 0 | 0 | 176 | 0 | 0 |
| 11 | C. Llollinco | 09-05-2026 02:30 | 1,8 | 97,6 | 0 | 0,1 | 207 | 0 | 0 |
| 10 | C. Llollinco | 09-05-2026 02:15 | 2 | 97,3 | 0 | 0,2 | 217 | 0 | 0 |
| 9 | C. Llollinco | 09-05-2026 02:00 | 2 | 97,2 | 0 | 0,1 | 311 | 0 | 0 |
| 8 | C. Llollinco | 09-05-2026 01:45 | 2 | 96,9 | 0 | 0,2 | 190 | 0 | 0 |
| 7 | C. Llollinco | 09-05-2026 01:30 | 2,1 | 96,8 | 0 | 0 | 0 | 0 | 0 |
| 6 | C. Llollinco | 09-05-2026 01:15 | 2,4 | 97 | 0 | 0 | 187 | 0 | 0 |
| 5 | C. Llollinco | 09-05-2026 01:00 | 2,5 | 96,8 | 0 | 0 | 0 | 0 | 0 |
| 4 | C. Llollinco | 09-05-2026 00:45 | 2,8 | 96,6 | 0 | 0 | 111 | 0 | 0 |
| 3 | C. Llollinco | 09-05-2026 00:30 | 2,8 | 96,7 | 0 | 0,1 | 226 | 0 | 0 |
| 2 | C. Llollinco | 09-05-2026 00:15 | 3,1 | 96,1 | 0 | 0 | 0 | 0 | 0 |
| 1 | C. Llollinco | 09-05-2026 00:00 | 3,4 | 96 | 0 | 0 | 0 | 0 | 0 |